Time;durP1;ratioP1;P1;durP2;ratioP2;P2;SDS_P1;SDS_P2;PMS_P1;PMS_P2;Temp;Humidity;BMP_temperature;BMP_pressure;BME280_temperature;BME280_humidity;BME280_pressure;Samples;Min_cycle;Max_cycle;Signal;HPM_P1;HPM_P2
2022/09/04 00:00:55;;;;;;;6.75;1.40;;;17.50;63.90;;;;;;5036078;28;20041;-43
2022/09/04 00:03:28;;;;;;;4.28;1.27;;;17.50;64.00;;;;;;5053216;28;20053;-43
2022/09/04 00:05:57;;;;;;;5.50;1.17;;;17.50;64.00;;;;;;5053133;28;20045;-43
2022/09/04 00:08:53;;;;;;;3.40;1.52;;;17.50;64.00;;;;;;5051619;28;20072;-41
2022/09/04 00:11:29;;;;;;;2.58;1.30;;;17.40;63.90;;;;;;5053794;28;20081;-44
2022/09/04 00:13:58;;;;;;;3.33;1.45;;;17.40;64.20;;;;;;5045434;28;20045;-45
2022/09/04 00:16:27;;;;;;;2.50;1.30;;;17.40;64.20;;;;;;5053528;28;20052;-46
2022/09/04 00:18:55;;;;;;;9.82;1.50;;;17.40;64.90;;;;;;5044069;28;20718;-44
2022/09/04 00:21:27;;;;;;;6.90;1.60;;;17.40;64.20;;;;;;5053471;28;20048;-41
2022/09/04 00:23:55;;;;;;;10.02;1.58;;;17.40;64.30;;;;;;5053630;28;20056;-44
2022/09/04 00:26:40;;;;;;;4.57;1.50;;;17.30;64.20;;;;;;5028690;28;20812;-44
2022/09/04 00:29:12;;;;;;;7.75;1.73;;;17.30;64.40;;;;;;5020340;28;20124;-43
2022/09/04 00:31:41;;;;;;;6.00;1.35;;;17.30;64.70;;;;;;5040843;28;20041;-43
2022/09/04 00:34:13;;;;;;;12.70;1.55;;;17.30;64.60;;;;;;5027482;28;20049;-42
2022/09/04 00:36:42;;;;;;;;;;;17.20;64.70;;;;;;5036027;28;20076;-45
2022/09/04 00:39:11;;;;;;;9.23;1.50;;;17.10;64.50;;;;;;5052681;28;19923;-43
2022/09/04 00:41:42;;;;;;;6.80;1.25;;;17.10;64.70;;;;;;5034425;28;20110;-41
2022/09/04 00:44:32;;;;;;;4.00;1.60;;;17.10;64.90;;;;;;5022687;28;20037;-44
2022/09/04 00:47:06;;;;;;;4.45;1.60;;;17.10;64.80;;;;;;5015743;28;20095;-43
2022/09/04 00:49:46;;;;;;;7.40;1.80;;;17.10;65.00;;;;;;5031493;28;20124;-43
2022/09/04 00:52:23;;;;;;;3.15;1.73;;;17.00;65.00;;;;;;5034948;28;20076;-43
2022/09/04 00:55:01;;;;;;;6.10;1.90;;;17.00;65.10;;;;;;5052657;28;20051;-44
2022/09/04 00:58:06;;;;;;;5.07;1.80;;;17.00;65.30;;;;;;5047286;28;20082;-45
2022/09/04 01:00:33;;;;;;;20.48;2.30;;;16.90;65.10;;;;;;5051745;28;20366;-45
2022/09/04 01:03:21;;;;;;;3.85;1.45;;;16.80;65.40;;;;;;5027832;28;20041;-42
2022/09/04 01:05:59;;;;;;;5.35;1.75;;;16.90;65.60;;;;;;5047430;28;20115;-43
2022/09/04 01:08:39;;;;;;;3.35;1.60;;;16.80;65.50;;;;;;5048069;28;20393;-43
2022/09/04 01:11:10;;;;;;;6.10;1.90;;;16.80;65.40;;;;;;5050075;28;20045;-45
2022/09/04 01:13:40;;;;;;;3.38;1.60;;;16.80;65.50;;;;;;5050475;28;20048;-47
2022/09/04 01:16:09;;;;;;;4.32;1.60;;;16.80;65.60;;;;;;5050576;28;20067;-45
2022/09/04 01:18:40;;;;;;;5.53;1.77;;;16.80;65.60;;;;;;5052200;28;20056;-46
2022/09/04 01:21:29;;;;;;;4.22;1.48;;;16.90;65.60;;;;;;5052189;28;20080;-44
2022/09/04 01:24:32;;;;;;;7.32;2.13;;;16.80;65.40;;;;;;5036543;28;20120;-49
2022/09/04 01:27:02;;;;;;;3.20;2.30;;;16.80;65.40;;;;;;5049824;28;20045;-46
2022/09/04 01:29:35;;;;;;;2.75;1.80;;;16.70;65.50;;;;;;5025524;28;20049;-43
2022/09/04 01:32:07;;;;;;;6.22;2.13;;;16.70;65.40;;;;;;5018157;28;20124;-45
2022/09/04 01:34:39;;;;;;;3.03;1.52;;;16.80;65.50;;;;;;5052451;28;20132;-45
2022/09/04 01:37:12;;;;;;;;;;;16.70;65.70;;;;;;5034249;28;20114;-44
2022/09/04 01:39:38;;;;;;;2.92;1.48;;;16.60;65.30;;;;;;5051326;28;20019;-46
2022/09/04 01:42:09;;;;;;;12.60;2.10;;;16.60;65.60;;;;;;5033849;28;20120;-42
2022/09/04 01:44:35;;;;;;;3.33;1.85;;;16.60;65.90;;;;;;5036082;28;20076;-40
2022/09/04 01:47:08;;;;;;;5.80;1.60;;;16.60;65.80;;;;;;5017695;28;20085;-45
2022/09/04 01:49:37;;;;;;;4.43;1.60;;;16.60;65.90;;;;;;5034546;28;20085;-44
2022/09/04 01:52:10;;;;;;;4.25;1.63;;;16.60;65.90;;;;;;5046284;28;20081;-46
2022/09/04 01:54:46;;;;;;;4.00;1.67;;;16.60;66.20;;;;;;5038938;28;20136;-46
2022/09/04 01:57:22;;;;;;;4.00;2.03;;;16.50;65.90;;;;;;5017852;28;20470;-45
2022/09/04 01:59:57;;;;;;;5.10;2.40;;;16.50;66.00;;;;;;5028324;28;20049;-44
2022/09/04 02:02:26;;;;;;;3.03;1.85;;;16.50;66.30;;;;;;5022234;28;20373;-45
2022/09/04 02:04:59;;;;;;;5.47;1.80;;;16.50;66.20;;;;;;5054650;28;20134;-47
2022/09/04 02:07:28;;;;;;;3.20;1.85;;;16.40;66.20;;;;;;5049024;28;20073;-48
2022/09/04 02:10:00;;;;;;;4.40;2.00;;;16.40;66.70;;;;;;5045306;28;20120;-44
2022/09/04 02:12:34;;;;;;;7.07;1.92;;;16.40;66.70;;;;;;5051514;28;20040;-47
2022/09/04 02:15:04;;;;;;;6.40;2.25;;;16.30;67.00;;;;;;5055472;28;20044;-45
2022/09/04 02:17:35;;;;;;;3.97;1.80;;;16.30;67.00;;;;;;5037660;28;20053;-46
2022/09/04 02:20:09;;;;;;;3.45;1.58;;;16.30;67.20;;;;;;5047914;28;20091;-44
2022/09/04 02:22:42;;;;;;;5.53;2.10;;;16.30;67.00;;;;;;5038108;28;20103;-43
2022/09/04 02:25:15;;;;;;;4.50;1.85;;;16.20;67.40;;;;;;5031638;28;20114;-50
2022/09/04 02:27:47;;;;;;;3.95;1.90;;;16.20;67.40;;;;;;5034619;28;20041;-43
2022/09/04 02:30:15;;;;;;;9.55;3.00;;;16.20;67.40;;;;;;5039710;28;20073;-48
2022/09/04 02:32:45;;;;;;;7.38;2.13;;;16.20;67.60;;;;;;5038385;28;20104;-47
2022/09/04 02:35:15;;;;;;;13.02;2.53;;;16.10;67.60;;;;;;5040326;28;20049;-46
2022/09/04 02:37:48;;;;;;;3.40;2.17;;;16.10;67.70;;;;;;5031713;28;20122;-46
2022/09/04 02:40:18;;;;;;;5.32;1.88;;;16.10;67.90;;;;;;5020602;28;20080;-45
2022/09/04 02:42:51;;;;;;;3.25;2.03;;;16.00;67.80;;;;;;5028850;28;20041;-49
2022/09/04 02:45:20;;;;;;;8.77;2.15;;;16.10;68.40;;;;;;5046672;28;20102;-47
2022/09/04 02:47:50;;;;;;;6.28;2.00;;;16.00;68.30;;;;;;5054101;28;20388;-44
2022/09/04 02:50:25;;;;;;;7.82;2.20;;;16.00;68.30;;;;;;5050187;28;20099;-47
2022/09/04 02:53:02;;;;;;;3.00;1.73;;;16.00;68.40;;;;;;5035801;28;20045;-42
2022/09/04 02:55:35;;;;;;;4.40;1.75;;;16.00;68.40;;;;;;5037182;28;20052;-40
2022/09/04 02:58:10;;;;;;;3.75;1.67;;;15.90;68.30;;;;;;5050902;28;20045;-44
2022/09/04 03:00:42;;;;;;;4.50;1.83;;;15.90;68.40;;;;;;5034728;28;20120;-46
2022/09/04 03:03:12;;;;;;;4.15;1.75;;;15.90;68.20;;;;;;5051292;28;20128;-44
2022/09/04 03:05:41;;;;;;;7.00;2.00;;;15.90;68.20;;;;;;5053541;28;20059;-47
2022/09/04 03:08:12;;;;;;;3.92;1.83;;;15.90;68.30;;;;;;5052061;28;20058;-47
2022/09/04 03:10:41;;;;;;;5.03;1.80;;;15.90;68.20;;;;;;5021605;28;20055;-48
2022/09/04 03:13:13;;;;;;;5.32;2.30;;;15.90;68.20;;;;;;5035440;28;20768;-42
2022/09/04 03:15:41;;;;;;;4.57;2.10;;;15.80;68.70;;;;;;5017677;28;20137;-48
2022/09/04 03:18:13;;;;;;;5.88;1.95;;;15.80;68.50;;;;;;5051479;28;20040;-47
2022/09/04 03:20:41;;;;;;;2.78;1.88;;;15.80;68.80;;;;;;5054112;28;20128;-46
2022/09/04 03:23:11;;;;;;;5.55;2.10;;;15.80;68.60;;;;;;5039455;28;20069;-48
2022/09/04 03:25:50;;;;;;;6.10;2.03;;;15.70;68.90;;;;;;5050893;28;20061;-46
2022/09/04 03:28:22;;;;;;;3.05;1.67;;;15.70;68.70;;;;;;5053261;28;20037;-44
2022/09/04 03:30:49;;;;;;;5.55;2.10;;;15.70;68.70;;;;;;5031519;28;20128;-45
2022/09/04 03:33:18;;;;;;;2.83;1.95;;;15.70;68.80;;;;;;5051965;28;20547;-41
2022/09/04 03:35:48;;;;;;;6.90;2.50;;;15.70;69.00;;;;;;5054353;28;20102;-46
2022/09/04 03:38:19;;;;;;;3.25;1.60;;;15.70;69.30;;;;;;5031145;28;20041;-40
2022/09/04 03:40:48;;;;;;;4.35;2.20;;;15.60;69.00;;;;;;5027190;28;20666;-41
2022/09/04 03:43:49;;;;;;;4.10;1.90;;;15.60;69.10;;;;;;5047090;28;20099;-44
2022/09/04 03:46:23;;;;;;;3.77;2.13;;;15.60;68.60;;;;;;5040873;28;20564;-45
2022/09/04 03:49:00;;;;;;;5.85;2.28;;;15.60;69.40;;;;;;5052173;28;20037;-45
2022/09/04 03:51:30;;;;;;;3.65;2.13;;;15.50;69.30;;;;;;5022825;28;20057;-44
2022/09/04 03:54:03;;;;;;;4.55;2.38;;;15.50;69.60;;;;;;5027842;28;20128;-46
2022/09/04 03:56:41;;;;;;;4.32;2.13;;;15.50;69.60;;;;;;5040120;28;20044;-37
2022/09/04 03:59:10;;;;;;;5.97;2.08;;;15.50;69.30;;;;;;5041722;28;20124;-45
2022/09/04 04:01:42;;;;;;;7.15;2.17;;;15.40;69.70;;;;;;5050357;28;20095;-44
2022/09/04 04:04:37;;;;;;;2.97;1.92;;;15.40;69.80;;;;;;5043418;28;20044;-48
2022/09/04 04:07:07;;;;;;;5.70;2.00;;;15.40;69.20;;;;;;5050117;28;20037;-44
2022/09/04 04:09:44;;;;;;;5.28;2.00;;;15.40;69.70;;;;;;5030344;28;20048;-40
2022/09/04 04:12:29;;;;;;;8.00;2.47;;;15.30;69.70;;;;;;5018129;28;20053;-42
2022/09/04 04:15:04;;;;;;;7.75;2.60;;;15.30;69.90;;;;;;5051446;28;20438;-44
2022/09/04 04:17:44;;;;;;;3.50;2.10;;;15.30;70.60;;;;;;5038378;28;20077;-48
2022/09/04 04:20:23;;;;;;;3.83;1.98;;;15.20;70.40;;;;;;5016357;28;20393;-46
2022/09/04 04:23:04;;;;;;;3.42;2.05;;;15.20;70.60;;;;;;5037764;28;20103;-45
2022/09/04 04:25:40;;;;;;;5.65;2.58;;;15.20;70.40;;;;;;5050745;28;20110;-44
2022/09/04 04:28:24;;;;;;;6.75;2.28;;;15.10;70.40;;;;;;5037293;28;20587;-43
2022/09/04 04:30:53;;;;;;;9.13;2.80;;;15.20;70.40;;;;;;5018398;28;20052;-44
2022/09/04 04:33:31;;;;;;;6.20;2.50;;;15.10;70.60;;;;;;5027861;28;20464;-47
2022/09/04 04:36:01;;;;;;;6.50;2.13;;;15.10;70.60;;;;;;5037101;28;20472;-45
2022/09/04 04:38:38;;;;;;;4.47;2.45;;;15.10;70.50;;;;;;5051651;28;20120;-41
2022/09/04 04:41:20;;;;;;;5.03;2.70;;;15.10;70.70;;;;;;5033081;28;20041;-39
2022/09/04 04:43:54;;;;;;;4.88;2.55;;;15.10;71.30;;;;;;5032753;28;20392;-46
2022/09/04 04:46:26;;;;;;;5.85;2.55;;;15.10;71.60;;;;;;5034436;28;20072;-48
2022/09/04 04:48:59;;;;;;;;;;;15.00;72.00;;;;;;5050255;28;20045;-44
2022/09/04 04:51:39;;;;;;;4.25;2.30;;;14.90;71.30;;;;;;5044757;28;19916;-46
2022/09/04 04:54:14;;;;;;;7.03;2.50;;;14.90;71.30;;;;;;5046123;28;20049;-45
2022/09/04 04:56:44;;;;;;;5.63;2.38;;;14.90;71.40;;;;;;5027643;28;20084;-45
2022/09/04 04:59:19;;;;;;;4.15;2.70;;;14.90;71.70;;;;;;5032934;28;20067;-44
2022/09/04 05:01:50;;;;;;;8.32;2.88;;;14.90;72.40;;;;;;5039801;28;20052;-45
2022/09/04 05:04:20;;;;;;;6.07;2.50;;;14.90;72.30;;;;;;5032501;28;20132;-46
2022/09/04 05:06:49;;;;;;;7.45;2.80;;;14.90;72.10;;;;;;5051107;28;20087;-45
2022/09/04 05:09:20;;;;;;;6.25;2.95;;;14.90;72.30;;;;;;5026272;28;20052;-43
2022/09/04 05:11:52;;;;;;;8.30;2.53;;;14.90;72.60;;;;;;5050465;28;20045;-48
2022/09/04 05:14:28;;;;;;;6.30;2.50;;;14.80;72.70;;;;;;5047858;28;20403;-36
2022/09/04 05:16:59;;;;;;;6.93;2.83;;;14.90;72.40;;;;;;5016190;28;20037;-45
2022/09/04 05:19:29;;;;;;;7.93;3.00;;;14.90;72.70;;;;;;5047607;28;20437;-44
2022/09/04 05:21:59;;;;;;;9.35;3.10;;;14.90;72.90;;;;;;5046542;28;20144;-44
2022/09/04 05:24:29;;;;;;;4.90;2.47;;;14.90;72.90;;;;;;5018015;28;20080;-46
2022/09/04 05:26:58;;;;;;;7.40;3.22;;;14.90;72.70;;;;;;5022988;28;20099;-44
2022/09/04 05:29:28;;;;;;;12.68;3.58;;;14.90;73.00;;;;;;5024815;28;20116;-45
2022/09/04 05:31:58;;;;;;;4.70;2.63;;;15.00;73.30;;;;;;5046385;28;20045;-47
2022/09/04 05:34:32;;;;;;;6.65;3.20;;;15.00;73.50;;;;;;5033293;28;20073;-47
2022/09/04 05:37:05;;;;;;;7.63;3.20;;;15.00;73.70;;;;;;5030904;28;20053;-45
2022/09/04 05:39:37;;;;;;;5.38;3.03;;;15.00;74.00;;;;;;5021888;28;20088;-47
2022/09/04 05:42:41;;;;;;;7.63;2.95;;;14.90;73.40;;;;;;5045793;28;20051;-41
2022/09/04 05:45:11;;;;;;;8.07;3.00;;;15.00;73.50;;;;;;5006251;28;20046;-47
2022/09/04 05:47:43;;;;;;;6.50;2.97;;;15.10;74.10;;;;;;5028843;28;20495;-43
2022/09/04 05:50:40;;;;;;;5.90;3.30;;;15.10;74.00;;;;;;5055396;28;20049;-41
2022/09/04 05:53:23;;;;;;;8.68;3.22;;;15.10;74.10;;;;;;5048327;28;20099;-40
2022/09/04 05:56:05;;;;;;;6.13;3.40;;;15.10;74.40;;;;;;5043705;28;20049;-44
2022/09/04 05:58:41;;;;;;;9.73;2.92;;;15.10;74.80;;;;;;5048634;28;20045;-47
2022/09/04 06:01:14;;;;;;;5.85;3.15;;;15.20;74.80;;;;;;5025687;28;20124;-48
2022/09/04 06:04:06;;;;;;;6.28;3.05;;;15.20;75.00;;;;;;5052826;28;20493;-35
2022/09/04 06:06:34;;;;;;;;;;;15.20;75.10;;;;;;5049862;28;20069;-41
2022/09/04 06:09:18;;;;;;;6.30;3.58;;;15.20;74.70;;;;;;5049432;28;19999;-43
2022/09/04 06:12:24;;;;;;;8.05;3.00;;;15.30;75.20;;;;;;5036988;28;20095;-45
2022/09/04 06:15:03;;;;;;;7.63;3.30;;;15.40;75.10;;;;;;5016014;28;20076;-40
2022/09/04 06:17:38;;;;;;;6.47;3.63;;;15.40;75.20;;;;;;5043801;28;20049;-47
2022/09/04 06:20:19;;;;;;;4.53;3.22;;;15.50;75.20;;;;;;5047598;28;20090;-46
2022/09/04 06:23:09;;;;;;;7.37;3.07;;;15.60;75.30;;;;;;5027554;28;20080;-45
2022/09/04 06:25:49;;;;;;;4.93;2.92;;;15.60;75.00;;;;;;5036655;28;20132;-44
2022/09/04 06:28:29;;;;;;;6.82;3.42;;;15.70;75.00;;;;;;5049629;28;20072;-43
2022/09/04 06:30:58;;;;;;;5.03;2.80;;;15.80;75.10;;;;;;5052104;28;20576;-46
2022/09/04 06:33:48;;;;;;;6.47;3.20;;;15.90;74.70;;;;;;5052102;28;20045;-45
2022/09/04 06:36:23;;;;;;;7.80;3.25;;;16.00;75.10;;;;;;5045700;28;20102;-41
2022/09/04 06:38:57;;;;;;;6.75;3.15;;;16.00;75.20;;;;;;5043549;28;20124;-38
2022/09/04 06:41:39;;;;;;;13.00;3.50;;;16.10;75.30;;;;;;5026863;28;20152;-40
2022/09/04 06:44:11;;;;;;;9.48;3.88;;;16.20;75.30;;;;;;5051814;28;20033;-41
2022/09/04 06:46:42;;;;;;;13.98;3.83;;;16.20;75.30;;;;;;5045935;28;20131;-42
2022/09/04 06:49:12;;;;;;;6.75;3.20;;;16.30;75.50;;;;;;5041468;28;20045;-41
2022/09/04 06:51:52;;;;;;;8.32;3.47;;;16.40;75.30;;;;;;5049752;28;20477;-45
2022/09/04 06:54:25;;;;;;;6.30;3.25;;;16.50;75.30;;;;;;5039247;28;20102;-40
2022/09/04 06:57:04;;;;;;;5.93;3.10;;;16.60;75.10;;;;;;5022891;28;20075;-38
2022/09/04 06:59:56;;;;;;;6.25;3.33;;;16.70;75.10;;;;;;5041311;28;20111;-41
2022/09/04 07:02:36;;;;;;;7.15;3.40;;;16.80;74.90;;;;;;5049284;28;20052;-44
2022/09/04 07:05:09;;;;;;;7.80;3.13;;;17.00;74.80;;;;;;5045952;28;20146;-40
2022/09/04 07:07:40;;;;;;;6.20;3.10;;;17.10;74.80;;;;;;5044043;28;20095;-43
2022/09/04 07:10:09;;;;;;;5.30;3.35;;;17.10;74.40;;;;;;5049467;28;20041;-46
2022/09/04 07:13:00;;;;;;;6.32;3.15;;;17.20;74.10;;;;;;5052550;28;20049;-44
2022/09/04 07:15:44;;;;;;;6.15;3.08;;;17.30;74.10;;;;;;5052228;28;20130;-46
2022/09/04 07:18:18;;;;;;;7.10;3.80;;;17.40;73.80;;;;;;5054208;28;20048;-44
2022/09/04 07:20:50;;;;;;;7.63;2.95;;;17.50;73.70;;;;;;5051057;28;20099;-46
2022/09/04 07:23:34;;;;;;;6.00;3.50;;;17.70;73.50;;;;;;5052676;28;20520;-42
2022/09/04 07:26:06;;;;;;;7.13;3.42;;;17.80;73.40;;;;;;5040646;28;20124;-43
2022/09/04 07:28:53;;;;;;;7.07;4.13;;;18.00;73.30;;;;;;5036348;28;20135;-43
2022/09/04 07:31:23;;;;;;;8.50;3.97;;;18.10;73.00;;;;;;5052572;28;20072;-44
2022/09/04 07:33:53;;;;;;;6.82;4.63;;;18.20;72.70;;;;;;5033476;28;20051;-43
2022/09/04 07:36:24;;;;;;;9.57;4.70;;;18.40;72.40;;;;;;5034210;28;20153;-43
2022/09/04 07:38:55;;;;;;;;;;;18.50;72.40;;;;;;5033032;28;20049;-46
2022/09/04 07:41:23;;;;;;;9.07;4.95;;;18.60;72.20;;;;;;5035430;28;20012;-43
2022/09/04 07:43:53;;;;;;;11.55;5.13;;;18.70;71.90;;;;;;5050775;28;20124;-44
2022/09/04 07:46:22;;;;;;;10.10;4.97;;;18.80;71.80;;;;;;5049791;28;20048;-45
2022/09/04 07:48:53;;;;;;;7.55;4.88;;;18.90;71.70;;;;;;5035261;28;20451;-47
2022/09/04 07:51:22;;;;;;;12.52;4.68;;;19.10;71.70;;;;;;5051719;28;20445;-44
2022/09/04 07:54:26;;;;;;;9.23;4.60;;;19.20;71.40;;;;;;5053126;28;20064;-43
2022/09/04 07:57:02;;;;;;;8.70;4.72;;;19.40;71.30;;;;;;4973468;28;20058;-48
2022/09/04 07:59:36;;;;;;;9.75;4.53;;;19.50;70.90;;;;;;5034134;28;20135;-39
2022/09/04 08:02:14;;;;;;;7.78;4.40;;;19.70;70.70;;;;;;5029846;28;20130;-47
2022/09/04 08:05:00;;;;;;;13.52;4.10;;;19.80;70.90;;;;;;5052488;28;20485;-47
2022/09/04 08:08:02;;;;;;;10.45;3.47;;;20.00;70.20;;;;;;5049541;28;20099;-45
2022/09/04 08:10:31;;;;;;;6.45;3.20;;;20.20;69.80;;;;;;5026660;28;20047;-49
2022/09/04 08:13:12;;;;;;;6.95;3.10;;;20.30;69.90;;;;;;5052613;28;20045;-47
2022/09/04 08:15:42;;;;;;;8.93;3.03;;;20.30;69.20;;;;;;5044017;28;20762;-37
2022/09/04 08:18:25;;;;;;;7.05;2.65;;;20.40;69.40;;;;;;5045382;28;20045;-48
2022/09/04 08:20:57;;;;;;;7.30;2.50;;;20.60;69.50;;;;;;5048307;28;20488;-49
2022/09/04 08:23:46;;;;;;;4.95;2.60;;;20.80;69.50;;;;;;5050555;28;20045;-45
2022/09/04 08:26:17;;;;;;;5.55;2.80;;;20.90;68.50;;;;;;5012661;28;20110;-46
2022/09/04 08:28:56;;;;;;;5.63;2.50;;;21.10;69.10;;;;;;5048679;28;20046;-46
2022/09/04 08:31:28;;;;;;;12.27;2.63;;;21.30;68.20;;;;;;5048091;28;20551;-45
2022/09/04 08:34:30;;;;;;;5.75;2.10;;;21.40;67.80;;;;;;5049174;28;20388;-44
2022/09/04 08:36:58;;;;;;;;;;;21.50;67.90;;;;;;5042294;28;20098;-44
2022/09/04 08:39:30;;;;;;;6.45;2.22;;;21.60;67.80;;;;;;5053109;28;20266;-46
2022/09/04 08:42:12;;;;;;;;;;;21.70;67.50;;;;;;5037456;28;20444;-47
2022/09/04 08:45:12;;;;;;;4.93;2.28;;;21.90;66.90;;;;;;5051374;28;19999;-47
2022/09/04 08:48:04;;;;;;;4.40;2.15;;;22.00;66.50;;;;;;5037327;28;20436;-41
2022/09/04 08:50:52;;;;;;;7.35;2.50;;;22.10;67.00;;;;;;5048762;28;20475;-43
2022/09/04 08:53:42;;;;;;;5.20;2.40;;;22.30;66.50;;;;;;5031929;28;20552;-45
2022/09/04 08:56:19;;;;;;;5.38;2.33;;;22.50;66.50;;;;;;5050064;28;20132;-45
2022/09/04 08:59:22;;;;;;;7.88;2.13;;;22.60;66.20;;;;;;5026517;28;20145;-46
2022/09/04 09:02:22;;;;;;;5.53;2.10;;;22.70;65.50;;;;;;5050123;28;20417;-44
2022/09/04 09:05:11;;;;;;;9.40;2.25;;;22.80;65.40;;;;;;5049713;28;20072;-45
2022/09/04 09:08:06;;;;;;;7.68;2.20;;;23.00;65.30;;;;;;5027205;28;20485;-45
2022/09/04 09:10:41;;;;;;;8.02;2.15;;;23.10;65.10;;;;;;5019500;28;20184;-45
2022/09/04 09:13:48;;;;;;;3.53;1.90;;;23.20;65.00;;;;;;5043318;28;20143;-41
2022/09/04 09:16:22;;;;;;;5.70;2.20;;;23.50;65.00;;;;;;4998721;28;20045;-44
2022/09/04 09:19:09;;;;;;;3.75;2.13;;;23.70;64.90;;;;;;5042968;28;20063;-45
2022/09/04 09:21:45;;;;;;;5.13;2.13;;;23.90;64.10;;;;;;5046978;28;20076;-45
2022/09/04 09:25:15;;;;;;;5.25;2.15;;;24.00;63.40;;;;;;5024229;28;20049;-44
2022/09/04 09:28:08;;;;;;;3.22;1.92;;;24.20;63.50;;;;;;4909172;29;20055;-36
2022/09/04 09:30:39;;;;;;;6.05;1.95;;;24.30;62.90;;;;;;4969799;28;20038;-43
2022/09/04 09:33:33;;;;;;;4.67;1.90;;;24.50;62.60;;;;;;5035455;28;20121;-42
2022/09/04 09:36:35;;;;;;;5.13;1.83;;;24.60;63.00;;;;;;5043655;28;20064;-38
2022/09/04 09:39:29;;;;;;;3.53;1.70;;;24.80;62.30;;;;;;5038108;28;20041;-42
2022/09/04 09:42:21;;;;;;;5.93;2.20;;;25.00;62.50;;;;;;5049225;28;20071;-45
2022/09/04 09:45:07;;;;;;;8.40;2.20;;;25.20;61.30;;;;;;5051721;28;20041;-43
2022/09/04 09:48:10;;;;;;;4.63;2.00;;;25.40;61.20;;;;;;5050788;28;20045;-47
2022/09/04 09:51:03;;;;;;;4.93;1.88;;;25.50;60.70;;;;;;5019710;28;20079;-44
2022/09/04 09:53:56;;;;;;;3.65;1.80;;;25.60;60.00;;;;;;5042653;28;20128;-44
2022/09/04 09:56:46;;;;;;;7.63;1.83;;;25.70;59.70;;;;;;5050929;28;20064;-41
2022/09/04 09:59:52;;;;;;;4.82;1.73;;;25.90;60.10;;;;;;5035015;28;20095;-44
2022/09/04 10:02:33;;;;;;;3.22;2.03;;;26.10;59.70;;;;;;5029822;28;20147;-44
2022/09/04 10:05:22;;;;;;;6.65;1.83;;;26.20;59.10;;;;;;5034749;28;20094;-46
2022/09/04 10:08:02;;;;;;;5.28;1.80;;;26.10;58.40;;;;;;4998676;28;20562;-45
2022/09/04 10:11:02;;;;;;;5.95;1.63;;;26.30;59.10;;;;;;5032866;28;20048;-43
2022/09/04 10:14:02;;;;;;;3.53;1.90;;;26.30;57.70;;;;;;5037932;28;20385;-48
2022/09/04 10:16:52;;;;;;;5.68;1.90;;;26.30;58.00;;;;;;5026128;28;20120;-44
2022/09/04 10:19:45;;;;;;;5.93;1.80;;;26.30;57.30;;;;;;5024541;28;20048;-45
2022/09/04 10:22:27;;;;;;;3.30;1.92;;;26.30;57.80;;;;;;5041000;28;20062;-47
2022/09/04 10:25:54;;;;;;;7.95;2.08;;;26.40;57.80;;;;;;5044793;28;20536;-45
2022/09/04 10:28:58;;;;;;;4.45;1.75;;;26.50;58.50;;;;;;4949247;28;20602;-45
2022/09/04 10:31:37;;;;;;;5.80;2.10;;;26.70;56.80;;;;;;5011691;28;20046;-43
2022/09/04 10:34:10;;;;;;;3.58;2.17;;;26.70;57.20;;;;;;5004441;28;20073;-41
2022/09/04 10:36:41;;;;;;;8.02;1.73;;;26.80;57.60;;;;;;5007900;28;20050;-44
2022/09/04 10:42:05;;;;;;;6.32;1.70;;;27.00;57.70;;;;;;5048599;28;20088;-48
2022/09/04 10:44:43;;;;;;;3.75;1.83;;;27.20;57.60;;;;;;5032643;28;20128;-46
2022/09/04 10:47:18;;;;;;;4.97;1.83;;;27.30;57.00;;;;;;5048413;28;20049;-49
2022/09/04 10:50:03;;;;;;;6.53;1.70;;;27.30;57.00;;;;;;5031070;28;20072;-47
2022/09/04 10:53:09;;;;;;;4.93;1.65;;;27.40;57.20;;;;;;5045562;28;20124;-43
2022/09/04 10:56:02;;;;;;;3.88;1.77;;;27.40;57.30;;;;;;5027127;28;20052;-44
2022/09/04 10:58:38;;;;;;;3.67;1.80;;;27.40;56.90;;;;;;5035751;28;20045;-44
2022/09/04 11:01:39;;;;;;;4.30;1.80;;;27.40;56.60;;;;;;5034895;28;20128;-43
2022/09/04 11:04:47;;;;;;;5.45;1.90;;;27.50;56.80;;;;;;5036067;28;20452;-42
2022/09/04 11:07:39;;;;;;;4.03;1.40;;;27.80;57.00;;;;;;4999986;28;20128;-45
2022/09/04 11:10:12;;;;;;;;;;;27.90;56.40;;;;;;5052924;28;20053;-42
2022/09/04 11:13:07;;;;;;;2.22;1.60;;;28.00;56.50;;;;;;5040671;28;20317;-44
2022/09/04 11:16:01;;;;;;;1.95;1.27;;;28.10;57.20;;;;;;5036993;28;20489;-43
2022/09/04 11:19:09;;;;;;;4.78;1.52;;;28.30;55.50;;;;;;5051474;28;20065;-45
2022/09/04 11:22:13;;;;;;;7.30;1.65;;;28.40;55.90;;;;;;5051055;28;20077;-44
2022/09/04 11:25:26;;;;;;;5.88;1.70;;;28.40;55.90;;;;;;5032045;28;20128;-42
2022/09/04 11:28:06;;;;;;;5.53;1.83;;;28.50;56.50;;;;;;4976849;28;20486;-45
2022/09/04 11:30:41;;;;;;;3.00;1.65;;;28.50;56.10;;;;;;4992947;28;20125;-44
2022/09/04 11:33:37;;;;;;;2.83;1.52;;;28.50;56.00;;;;;;5029170;28;20040;-44
2022/09/04 11:36:35;;;;;;;7.47;1.92;;;28.70;56.70;;;;;;5035271;28;20102;-48
2022/09/04 11:39:39;;;;;;;3.00;1.83;;;28.80;55.70;;;;;;5036687;28;20089;-44
2022/09/04 11:42:28;;;;;;;4.18;1.52;;;28.80;55.60;;;;;;5054276;28;20076;-46
2022/09/04 11:45:20;;;;;;;6.65;1.70;;;28.90;55.50;;;;;;5053510;28;20041;-45
2022/09/04 11:48:24;;;;;;;3.83;1.80;;;29.00;55.00;;;;;;5036401;28;20085;-47
2022/09/04 11:51:01;;;;;;;3.90;1.50;;;29.10;55.00;;;;;;5031198;28;20128;-43
2022/09/04 11:54:10;;;;;;;3.97;1.80;;;29.20;55.40;;;;;;5048033;28;20168;-49
2022/09/04 11:56:43;;;;;;;6.30;1.77;;;29.30;54.70;;;;;;5030403;28;20481;-48
2022/09/04 11:59:30;;;;;;;2.90;1.42;;;29.40;55.10;;;;;;5033903;28;20053;-46
2022/09/04 12:02:14;;;;;;;2.78;1.67;;;29.50;54.30;;;;;;5042694;28;20144;-45
2022/09/04 12:04:48;;;;;;;5.50;1.90;;;29.60;54.50;;;;;;5053677;28;20055;-46
2022/09/04 12:07:24;;;;;;;3.63;1.55;;;29.60;54.30;;;;;;5053823;28;20116;-48
2022/09/04 12:10:16;;;;;;;2.10;1.60;;;29.60;54.20;;;;;;5049721;28;20072;-49
2022/09/04 12:13:09;;;;;;;5.05;1.70;;;29.70;54.00;;;;;;5053688;28;20060;-50
2022/09/04 12:15:54;;;;;;;5.68;1.50;;;29.70;54.50;;;;;;5035853;28;20059;-46
2022/09/04 12:18:50;;;;;;;4.18;1.60;;;29.70;54.20;;;;;;5034377;28;20128;-46
2022/09/04 12:21:36;;;;;;;2.53;1.83;;;29.70;54.50;;;;;;5033385;28;20088;-47
2022/09/04 12:24:14;;;;;;;2.97;1.52;;;29.80;53.50;;;;;;5033748;28;20049;-46
2022/09/04 12:27:01;;;;;;;3.05;1.40;;;29.70;53.40;;;;;;5016089;28;20478;-46
2022/09/04 12:30:04;;;;;;;10.38;1.88;;;29.70;53.80;;;;;;5045457;28;20120;-48
2022/09/04 12:32:54;;;;;;;4.30;1.27;;;29.60;53.70;;;;;;5015710;28;20042;-43
2022/09/04 12:36:05;;;;;;;2.47;1.40;;;29.70;54.70;;;;;;5029163;28;20080;-50
2022/09/04 12:38:46;;;;;;;;;;;29.70;53.40;;;;;;5040482;28;20053;-45
2022/09/04 12:41:15;;;;;;;2.28;1.48;;;29.70;53.70;;;;;;5053304;28;20015;-45
2022/09/04 12:43:49;;;;;;;2.97;1.65;;;29.80;53.80;;;;;;5053111;28;20053;-47
2022/09/04 12:46:29;;;;;;;3.90;1.70;;;30.00;53.60;;;;;;5053118;28;20080;-49
2022/09/04 12:49:03;;;;;;;5.53;1.73;;;30.00;53.40;;;;;;5051021;28;20380;-47
2022/09/04 12:51:34;;;;;;;2.95;1.60;;;30.00;53.40;;;;;;5052469;28;20033;-44
2022/09/04 12:54:03;;;;;;;;;;;29.90;53.10;;;;;;5048258;28;20052;-50
2022/09/04 12:56:41;;;;;;;3.42;1.90;;;29.90;53.50;;;;;;5032696;28;19917;-50
2022/09/04 12:59:21;;;;;;;2.25;1.50;;;29.90;53.30;;;;;;5032920;28;20053;-47
2022/09/04 13:01:54;;;;;;;4.63;1.40;;;30.10;53.10;;;;;;5015489;28;20053;-47
2022/09/04 13:04:22;;;;;;;3.83;1.60;;;30.10;53.00;;;;;;5015621;28;20049;-44
2022/09/04 13:07:00;;;;;;;2.63;1.50;;;30.20;52.40;;;;;;5046333;28;20124;-47
2022/09/04 13:09:32;;;;;;;2.95;1.58;;;30.30;52.40;;;;;;5034875;28;20420;-50
2022/09/04 13:12:09;;;;;;;5.93;1.70;;;30.40;52.30;;;;;;5034740;28;20131;-45
2022/09/04 13:15:03;;;;;;;4.82;1.58;;;30.60;52.20;;;;;;5052820;28;20106;-47
2022/09/04 13:17:33;;;;;;;2.42;1.70;;;30.60;51.40;;;;;;5052739;28;20055;-49
2022/09/04 13:20:04;;;;;;;;;;;30.50;52.40;;;;;;5053033;28;20472;-46
2022/09/04 13:22:34;;;;;;;2.63;1.90;;;30.50;52.00;;;;;;5052026;28;19917;-48
2022/09/04 13:25:07;;;;;;;4.43;1.95;;;30.40;52.30;;;;;;5051613;28;20044;-45
2022/09/04 13:27:42;;;;;;;3.33;1.67;;;30.40;52.20;;;;;;5051656;28;20048;-51
2022/09/04 13:30:11;;;;;;;5.18;1.88;;;30.50;52.60;;;;;;5052503;28;20070;-47
2022/09/04 13:33:10;;;;;;;3.47;1.60;;;30.50;52.80;;;;;;5034440;28;20466;-49
2022/09/04 13:35:50;;;;;;;3.25;1.75;;;30.60;51.60;;;;;;5034793;28;20045;-47
2022/09/04 13:38:52;;;;;;;5.68;1.90;;;30.50;51.30;;;;;;5049532;28;20528;-50
2022/09/04 13:41:33;;;;;;;3.47;1.80;;;30.40;52.50;;;;;;4998949;28;20053;-48
2022/09/04 13:44:08;;;;;;;2.55;1.65;;;30.40;52.00;;;;;;5052822;28;20076;-47
2022/09/04 13:46:36;;;;;;;4.20;1.80;;;30.50;52.10;;;;;;5052451;28;20091;-50
2022/09/04 13:49:06;;;;;;;4.05;1.75;;;30.50;51.80;;;;;;5052254;28;20490;-50
2022/09/04 13:51:35;;;;;;;4.97;1.90;;;30.60;52.10;;;;;;5051986;28;20053;-48
2022/09/04 13:54:05;;;;;;;4.18;1.80;;;30.60;52.30;;;;;;5034822;28;20049;-50